Perdasdefogu, Italy

6:38 AM CET on March 28, 2015 (GMT +0100)
LANUSEI | | Change Station
CLOSE
Current Station
Personal Weather Station
Location: Lanusei, SARDEGNA
Elevation: 1962 ft
Nearby Weather Stations
Active Advisory: Wind

Elev 1962 ft 39.88 °N, 9.54 °E | Updated 26 seconds ago

Clear
Clear
51.3 °F
Feels Like 51.3 °F
N
5.4
Wind Variable Wind from NW
Gusts 22.1 mph

Today
High -- | Low -- °F
--% Chance of Precip.
Yesterday
High -- | Low -- °F
Precip. -- in
6:13 AM 6:41 PM
First Quarter, 59% visible
Pressure 29.83 in
Visibility -9999.0 miles
Clouds
Dew Point 28 °F
Humidity 41%
Rainfall 0.00 in
Snow Depth Not available.
UV 0.0 out of 12
Pollen Not available.
Air Quality Not available.
Flu Activity Not available.
METAR LIEB 280455Z 36016G36KT CAVOK 13/00 Q1010 RMK SKC QUK 2 QUL 0 VIS MAR 20 KM MON INVIS VIS MIN 9999

More Conditions Fewer Conditions

Pressure 29.83 in
Visibility -9999.0 miles
Clouds
Dew Point 28 °F
Humidity 41%
Rainfall 0.00 in
Snow Depth Not available.
UV 0.0 out of 12
Pollen Not available.
Air Quality Not available.
Flu Activity Not available.
METAR LIEB 280455Z 36016G36KT CAVOK 13/00 Q1010 RMK SKC QUK 2 QUL 0 VIS MAR 20 KM MON INVIS VIS MIN 9999

More Conditions Fewer Conditions

10-Day Weather Forecast

Almanac

Astronomy

Mar. 28, 2015 Rise Set
Actual Time
Civil Twilight
Nautical Twilight
Astronomical Twilight
Moon
Length of Visible Light
Length of Day
Tomorrow will be .
, % of the Moon is Illuminated

Today's Extremes

Country Highs Country Lows

Community

WunderPhotos

Upload Photos

1,808,934 photos uploaded!

WunderBlogs® & News

Nearby

Air Quality

  Air Quality AQ Index Pollutant
Not available.

Snow Depth

Station Depth Elevation

Earthquake Activity

City Distance Mag. Time & Date
Minimum magnitude displayed is 2.5.

Coastal Water Temperatures

Place Temperature

Stations

Nearby Weather Stations

Station Location Temp. Windchill Dew Point Humidity Wind Precip. Elev Updated Type